Time;durP1;ratioP1;P1;durP2;ratioP2;P2;SDS_P1;SDS_P2;PMS_P1;PMS_P2;Temp;Humidity;BMP_temperature;BMP_pressure;BME280_temperature;BME280_humidity;BME280_pressure;Samples;Min_cycle;Max_cycle;Signal;HPM_P1;HPM_P2
2024/02/12 05:02:33;;;;;;;1.77;1.67;;;7.90;97.30;;;;;;5229219;23;21041;-86
2024/02/12 05:05:23;;;;;;;1.57;1.47;;;7.90;97.30;;;;;;5026457;28;20465;-91
2024/02/12 05:11:26;;;;;;;1.07;1.00;;;7.90;97.30;;;;;;4979952;28;20453;-86
2024/02/12 05:17:54;;;;;;;1.10;1.00;;;7.90;97.30;;;;;;4983159;28;20420;-91
2024/02/12 05:24:42;;;;;;;;;;;;;;;;;;;;;
2024/02/12 05:27:22;;;;;;;4.63;1.53;;;7.90;97.30;;;;;;4915016;29;20569;-85
2024/02/12 05:30:42;;;;;;;1.10;1.00;;;7.90;97.30;;;;;;4936501;28;20510;-89
2024/02/12 05:33:14;;;;;;;1.17;1.13;;;7.90;97.30;;;;;;4928084;29;20465;-88
2024/02/12 05:35:42;;;;;;;1.10;1.00;;;7.90;97.30;;;;;;4945688;28;20873;-87
2024/02/12 05:41:40;;;;;;;1.67;1.57;;;7.90;97.30;;;;;;4953249;23;20468;-70
2024/02/12 05:44:06;;;;;;;1.57;1.47;;;7.90;97.30;;;;;;5071057;28;20417;-71
2024/02/12 05:46:31;;;;;;;1.37;1.27;;;7.90;97.30;;;;;;5053697;28;20974;-70
2024/02/12 05:48:59;;;;;;;2.20;1.43;;;7.90;97.30;;;;;;5053456;28;20657;-70
2024/02/12 05:51:26;;;;;;;3.13;1.70;;;7.90;97.30;;;;;;5046951;28;20234;-70
2024/02/12 05:53:51;;;;;;;2.80;1.43;;;7.90;97.30;;;;;;5071505;28;20948;-70
2024/02/12 05:56:17;;;;;;;1.40;1.30;;;7.80;97.30;;;;;;5049681;28;20444;-70
2024/02/12 05:58:42;;;;;;;1.20;1.10;;;7.80;97.30;;;;;;5067263;28;20634;-71
2024/02/12 06:01:08;;;;;;;1.43;1.33;;;7.80;97.30;;;;;;5068862;28;20191;-70
2024/02/12 06:03:34;;;;;;;1.07;0.97;;;7.80;97.30;;;;;;5045473;28;20554;-70
2024/02/12 06:06:00;;;;;;;1.83;1.27;;;7.80;97.30;;;;;;5044973;28;20578;-73
2024/02/12 06:08:26;;;;;;;1.43;1.33;;;7.80;97.30;;;;;;5045593;28;20604;-71
2024/02/12 06:10:51;;;;;;;0.90;0.80;;;7.80;97.30;;;;;;5045021;28;20501;-70
2024/02/12 06:13:17;;;;;;;1.80;1.10;;;7.80;97.30;;;;;;5062546;28;20520;-70
2024/02/12 06:15:43;;;;;;;3.27;2.00;;;7.80;97.30;;;;;;5062999;28;20550;-70
2024/02/12 06:18:08;;;;;;;1.00;0.90;;;7.80;97.30;;;;;;5061216;28;20552;-71
2024/02/12 06:20:34;;;;;;;1.10;1.00;;;7.80;97.30;;;;;;5068781;28;20203;-70
2024/02/12 06:22:59;;;;;;;2.13;1.97;;;7.80;97.30;;;;;;5053680;28;20186;-70
2024/02/12 06:25:25;;;;;;;0.87;0.77;;;7.80;97.30;;;;;;5055777;28;20209;-69
2024/02/12 06:27:51;;;;;;;1.00;0.90;;;7.80;97.30;;;;;;5071225;28;20179;-70
2024/02/12 06:30:16;;;;;;;1.00;0.90;;;7.80;97.30;;;;;;5060928;28;20218;-71
2024/02/12 06:32:42;;;;;;;1.10;1.00;;;7.80;97.30;;;;;;5071049;28;20666;-69
2024/02/12 06:35:08;;;;;;;1.63;1.20;;;7.80;97.30;;;;;;5042305;28;20179;-70
2024/02/12 06:37:34;;;;;;;0.80;0.70;;;7.80;97.30;;;;;;5065047;28;20675;-71
2024/02/12 06:40:00;;;;;;;1.00;0.90;;;7.70;97.30;;;;;;5044369;28;20429;-71
2024/02/12 06:42:26;;;;;;;1.20;1.10;;;7.70;97.30;;;;;;5070653;28;20951;-70
2024/02/12 06:44:51;;;;;;;1.33;1.30;;;7.70;97.30;;;;;;5033649;23;20243;-87
2024/02/12 06:47:17;;;;;;;1.73;1.63;;;7.70;97.30;;;;;;4999358;28;20585;-87
2024/02/12 06:49:45;;;;;;;1.27;1.17;;;7.70;97.30;;;;;;4998225;28;20171;-87
2024/02/12 06:52:11;;;;;;;1.03;0.93;;;7.70;97.30;;;;;;5002415;28;20263;-87
2024/02/12 06:54:37;;;;;;;0.90;0.80;;;7.70;97.30;;;;;;4998494;28;20934;-87
2024/02/12 06:57:02;;;;;;;2.07;1.93;;;7.70;97.30;;;;;;5009922;28;20183;-87
2024/02/12 06:59:28;;;;;;;1.10;1.00;;;7.70;97.30;;;;;;5012416;28;20177;-87
2024/02/12 07:01:53;;;;;;;2.27;2.07;;;7.70;97.30;;;;;;5004911;28;20220;-87
2024/02/12 07:04:19;;;;;;;1.20;1.10;;;7.70;97.30;;;;;;5009863;28;20236;-86
2024/02/12 07:06:44;;;;;;;1.47;1.30;;;7.70;97.30;;;;;;5007177;28;20675;-88
2024/02/12 07:09:10;;;;;;;1.10;1.00;;;7.70;97.30;;;;;;5001446;28;20209;-87
2024/02/12 07:11:35;;;;;;;1.10;1.00;;;7.70;97.30;;;;;;4992889;28;20185;-87
2024/02/12 07:14:01;;;;;;;1.00;0.90;;;7.70;97.30;;;;;;5012185;28;20189;-87
2024/02/12 07:16:30;;;;;;;3.70;1.83;;;7.60;97.30;;;;;;5010326;28;20170;-87
2024/02/12 07:18:56;;;;;;;1.07;0.97;;;7.70;97.30;;;;;;5007235;28;20261;-86
2024/02/12 07:21:22;;;;;;;3.57;1.20;;;7.60;97.30;;;;;;5011896;28;20439;-88
2024/02/12 07:23:47;;;;;;;2.10;2.00;;;7.60;97.30;;;;;;5012701;28;21005;-87
2024/02/12 07:26:13;;;;;;;1.77;1.00;;;7.60;97.30;;;;;;5010271;28;20223;-87
2024/02/12 07:28:39;;;;;;;1.17;1.07;;;7.60;97.30;;;;;;5016790;28;20169;-87
2024/02/12 07:31:08;;;;;;;0.90;0.80;;;7.60;97.30;;;;;;5012271;28;20315;-87
2024/02/12 07:33:35;;;;;;;1.20;1.10;;;7.60;97.30;;;;;;5003703;28;20686;-87
2024/02/12 07:36:05;;;;;;;1.37;1.27;;;7.60;97.30;;;;;;5018064;28;20431;-86
2024/02/12 07:38:30;;;;;;;3.40;2.30;;;7.70;97.30;;;;;;5005086;28;20452;-87
2024/02/12 07:40:56;;;;;;;1.13;1.03;;;7.70;97.30;;;;;;4993563;28;20974;-87
2024/02/12 07:43:24;;;;;;;1.00;0.90;;;7.70;97.30;;;;;;5008825;28;20202;-87
2024/02/12 07:45:50;;;;;;;8.33;2.47;;;7.70;97.30;;;;;;5003378;28;20208;-87
2024/02/12 07:48:15;;;;;;;1.57;1.10;;;7.70;97.30;;;;;;5003613;28;20423;-87
2024/02/12 07:50:41;;;;;;;2.80;1.20;;;7.70;97.30;;;;;;4997022;28;20666;-87
2024/02/12 07:53:07;;;;;;;1.40;1.33;;;7.80;97.30;;;;;;5003804;28;20662;-87
2024/02/12 07:55:32;;;;;;;1.33;1.23;;;7.80;97.30;;;;;;5003224;28;20177;-87
2024/02/12 07:57:58;;;;;;;3.23;2.10;;;7.80;97.30;;;;;;5003929;28;20192;-87
2024/02/12 08:00:25;;;;;;;3.67;3.43;;;7.80;97.30;;;;;;5009788;28;20184;-87
2024/02/12 08:02:50;;;;;;;2.03;1.90;;;7.80;97.30;;;;;;5009410;28;20183;-87
2024/02/12 08:05:16;;;;;;;2.40;2.20;;;7.80;97.30;;;;;;5012732;28;20455;-87
2024/02/12 08:07:43;;;;;;;1.37;1.27;;;7.90;97.30;;;;;;5001360;28;20635;-87
2024/02/12 08:10:09;;;;;;;2.17;2.00;;;7.90;97.30;;;;;;5027942;28;20675;-87
2024/02/12 08:12:35;;;;;;;1.20;1.10;;;7.90;97.30;;;;;;5001197;28;20419;-88
2024/02/12 08:15:01;;;;;;;5.00;2.07;;;8.00;97.30;;;;;;5014125;28;20435;-87
2024/02/12 08:17:27;;;;;;;3.93;1.87;;;8.00;97.30;;;;;;5003257;28;20444;-87
2024/02/12 08:19:54;;;;;;;1.53;1.43;;;8.00;97.30;;;;;;4996926;28;20247;-88
2024/02/12 08:22:21;;;;;;;1.90;1.80;;;8.00;97.30;;;;;;4997182;28;20415;-87
2024/02/12 08:24:47;;;;;;;4.93;1.23;;;8.10;97.30;;;;;;5009461;28;20466;-87
2024/02/12 08:27:13;;;;;;;1.37;1.27;;;8.10;97.30;;;;;;5017308;28;20408;-87
2024/02/12 08:29:38;;;;;;;1.47;1.40;;;8.20;97.30;;;;;;5001711;28;20427;-87
2024/02/12 08:32:05;;;;;;;0.90;0.80;;;8.20;97.30;;;;;;5012925;28;20181;-87
2024/02/12 08:34:31;;;;;;;0.90;0.80;;;8.20;97.30;;;;;;5012010;28;20230;-87
2024/02/12 08:36:56;;;;;;;1.00;0.90;;;8.20;97.30;;;;;;5022505;28;20944;-87
2024/02/12 08:39:22;;;;;;;1.30;1.20;;;8.20;97.30;;;;;;5020881;28;20198;-87
2024/02/12 08:41:49;;;;;;;1.50;1.20;;;8.20;97.30;;;;;;5008976;28;20180;-87
2024/02/12 08:44:15;;;;;;;2.83;1.47;;;8.20;97.30;;;;;;5004721;28;20234;-87
2024/02/12 08:46:41;;;;;;;0.90;0.80;;;8.30;97.30;;;;;;5012960;28;20789;-87
2024/02/12 08:49:06;;;;;;;1.70;1.50;;;8.30;97.30;;;;;;5003624;28;20235;-86
2024/02/12 08:51:32;;;;;;;1.77;1.63;;;8.30;97.30;;;;;;5001939;28;20474;-86
2024/02/12 08:53:59;;;;;;;1.30;1.20;;;8.30;97.30;;;;;;5001601;28;20212;-86
2024/02/12 08:56:27;;;;;;;1.57;1.40;;;8.40;97.30;;;;;;5005196;28;20180;-87
2024/02/12 08:58:52;;;;;;;2.77;1.43;;;8.30;97.30;;;;;;5013043;28;20429;-86
2024/02/12 09:01:18;;;;;;;3.23;1.70;;;8.40;97.30;;;;;;5002940;28;20423;-86
2024/02/12 09:03:45;;;;;;;1.87;1.13;;;8.40;97.30;;;;;;5002983;28;20247;-87
2024/02/12 09:06:15;;;;;;;1.67;1.57;;;8.50;97.30;;;;;;5010900;28;20231;-87
2024/02/12 09:08:41;;;;;;;2.70;1.17;;;8.50;97.30;;;;;;5007785;28;20420;-87
2024/02/12 09:11:07;;;;;;;3.60;2.50;;;8.40;97.30;;;;;;5024683;28;20478;-87
2024/02/12 09:13:33;;;;;;;4.30;2.37;;;8.50;97.30;;;;;;5010349;28;20447;-87
2024/02/12 09:15:59;;;;;;;2.50;2.07;;;8.50;97.30;;;;;;5010405;28;20427;-88
2024/02/12 09:18:26;;;;;;;1.73;1.63;;;8.50;97.30;;;;;;5033545;28;20452;-87
2024/02/12 09:20:54;;;;;;;1.30;1.20;;;8.50;97.30;;;;;;5010357;28;20185;-87
2024/02/12 09:23:21;;;;;;;1.50;1.40;;;8.50;97.30;;;;;;5014871;28;20501;-87
2024/02/12 09:25:48;;;;;;;1.67;1.57;;;8.50;97.30;;;;;;5008812;28;20501;-87
2024/02/12 09:28:14;;;;;;;2.80;2.23;;;8.60;97.30;;;;;;5006904;28;20503;-87
2024/02/12 09:30:39;;;;;;;2.03;1.70;;;8.70;97.30;;;;;;5005592;28;20874;-87
2024/02/12 09:33:06;;;;;;;4.40;1.73;;;8.70;97.30;;;;;;5009946;28;20244;-87
2024/02/12 09:35:33;;;;;;;1.37;0.80;;;8.80;97.30;;;;;;5015316;28;20183;-87
2024/02/12 09:37:59;;;;;;;1.27;1.17;;;8.90;97.30;;;;;;5003747;28;20481;-88
2024/02/12 09:40:26;;;;;;;2.83;1.57;;;8.90;97.30;;;;;;5008089;28;21271;-87
2024/02/12 09:42:56;;;;;;;1.10;1.00;;;8.90;97.30;;;;;;5010066;28;20264;-86
2024/02/12 09:45:24;;;;;;;1.27;1.20;;;8.90;97.30;;;;;;5026266;28;21021;-87
2024/02/12 09:47:50;;;;;;;2.30;1.33;;;8.90;97.30;;;;;;5016518;28;20419;-87
2024/02/12 09:50:16;;;;;;;1.50;1.40;;;8.90;97.30;;;;;;4994683;28;20527;-87
2024/02/12 09:52:45;;;;;;;2.40;2.00;;;8.90;97.30;;;;;;5027477;28;20415;-88
2024/02/12 09:55:12;;;;;;;1.63;1.40;;;8.90;97.30;;;;;;5008719;28;20447;-87
2024/02/12 09:57:38;;;;;;;1.60;1.50;;;9.00;97.30;;;;;;5005715;28;20428;-87
2024/02/12 10:00:07;;;;;;;2.77;1.00;;;9.10;97.30;;;;;;5002151;28;20525;-87
2024/02/12 10:02:36;;;;;;;12.23;2.13;;;9.30;97.30;;;;;;5027192;28;20318;-87
2024/02/12 10:05:08;;;;;;;2.50;1.10;;;9.30;97.30;;;;;;5021273;28;20554;-87
2024/02/12 10:07:39;;;;;;;1.70;1.20;;;9.30;97.30;;;;;;4999391;28;20878;-87
2024/02/12 10:10:07;;;;;;;1.10;1.00;;;9.30;97.30;;;;;;5007595;28;20463;-87
2024/02/12 10:12:36;;;;;;;1.47;1.37;;;9.40;97.30;;;;;;5020538;28;20412;-88
2024/02/12 10:15:02;;;;;;;2.17;1.00;;;9.40;97.30;;;;;;5029870;28;20431;-87
2024/02/12 10:17:28;;;;;;;2.17;1.30;;;9.50;97.30;;;;;;4999784;28;20486;-87
2024/02/12 10:19:53;;;;;;;1.07;0.97;;;9.50;97.30;;;;;;5027441;28;20464;-87
2024/02/12 10:22:20;;;;;;;1.20;1.10;;;9.60;97.30;;;;;;4995201;28;20250;-88
2024/02/12 10:24:47;;;;;;;1.20;1.10;;;9.70;97.30;;;;;;4995979;28;20202;-87
2024/02/12 10:27:14;;;;;;;3.53;1.97;;;9.70;97.30;;;;;;5004146;28;20415;-87
2024/02/12 10:29:40;;;;;;;1.00;0.90;;;9.70;97.30;;;;;;5032652;28;20426;-87
2024/02/12 10:32:09;;;;;;;2.20;1.10;;;9.70;97.30;;;;;;5007460;28;20409;-87
2024/02/12 10:34:41;;;;;;;12.87;1.57;;;9.80;97.30;;;;;;5014979;28;20625;-87
2024/02/12 10:37:08;;;;;;;1.20;1.10;;;10.00;97.30;;;;;;5006957;28;20507;-87
2024/02/12 10:39:37;;;;;;;1.33;1.23;;;9.90;97.30;;;;;;5000690;28;20428;-87
2024/02/12 10:42:08;;;;;;;1.57;1.47;;;9.90;97.30;;;;;;5007398;28;20486;-87
2024/02/12 10:44:34;;;;;;;1.20;1.10;;;9.90;97.30;;;;;;5003246;28;20514;-88
2024/02/12 10:47:00;;;;;;;1.27;1.20;;;10.00;97.30;;;;;;5004851;28;20416;-87
2024/02/12 10:49:26;;;;;;;1.40;1.37;;;10.00;97.30;;;;;;5014578;28;20430;-87
2024/02/12 10:51:54;;;;;;;1.40;1.30;;;9.90;97.30;;;;;;5002367;28;20185;-87
2024/02/12 10:54:22;;;;;;;2.50;1.43;;;9.90;97.30;;;;;;5006760;28;20521;-87
2024/02/12 10:56:48;;;;;;;1.27;1.20;;;9.90;97.30;;;;;;5009285;28;20442;-87
2024/02/12 10:59:16;;;;;;;0.90;0.80;;;9.80;97.30;;;;;;5014394;28;20426;-87
2024/02/12 11:01:43;;;;;;;0.90;0.80;;;9.80;97.30;;;;;;5010914;28;20435;-87
2024/02/12 11:04:15;;;;;;;1.23;1.10;;;9.80;97.30;;;;;;5013290;28;20441;-87
2024/02/12 11:06:41;;;;;;;1.37;1.13;;;9.80;97.30;;;;;;5023314;28;20412;-87
2024/02/12 11:09:09;;;;;;;1.00;0.90;;;9.80;97.30;;;;;;5007928;28;20422;-87
2024/02/12 11:11:45;;;;;;;1.53;1.40;;;9.80;97.30;;;;;;5021437;28;20267;-87
2024/02/12 11:14:18;;;;;;;1.00;0.90;;;9.80;97.30;;;;;;5014258;28;20513;-88
2024/02/12 11:16:44;;;;;;;1.17;1.10;;;9.80;97.30;;;;;;5004714;28;20502;-88
2024/02/12 11:19:16;;;;;;;3.70;1.50;;;9.80;97.30;;;;;;5008365;28;20519;-88
2024/02/12 11:21:44;;;;;;;1.10;1.00;;;9.80;97.30;;;;;;5009520;28;20168;-87
2024/02/12 11:24:10;;;;;;;1.20;1.10;;;9.80;97.30;;;;;;5007869;28;20456;-86
2024/02/12 11:26:49;;;;;;;0.80;0.77;;;9.90;97.30;;;;;;5013795;28;20967;-87
2024/02/12 11:29:18;;;;;;;6.73;2.43;;;10.00;97.30;;;;;;5021367;28;20895;-87
2024/02/12 11:31:44;;;;;;;3.57;1.13;;;10.10;97.30;;;;;;5001013;28;20964;-87
2024/02/12 11:34:14;;;;;;;1.23;1.13;;;10.10;97.30;;;;;;5007165;28;20602;-87
2024/02/12 11:36:40;;;;;;;1.47;1.37;;;10.10;97.30;;;;;;5011017;28;20776;-88
2024/02/12 11:39:09;;;;;;;1.40;1.10;;;10.20;97.30;;;;;;5007585;28;20525;-87
2024/02/12 11:41:38;;;;;;;1.80;1.70;;;10.20;97.30;;;;;;5009087;28;20446;-87
2024/02/12 11:44:07;;;;;;;6.90;2.03;;;10.20;97.30;;;;;;5013625;28;20563;-88
2024/02/12 11:46:34;;;;;;;0.93;0.90;;;10.40;97.30;;;;;;5023938;28;20606;-87
2024/02/12 11:49:06;;;;;;;4.40;1.90;;;10.50;97.30;;;;;;5005197;28;20434;-87
2024/02/12 11:51:33;;;;;;;1.13;1.07;;;10.70;97.30;;;;;;5007260;28;20918;-87
2024/02/12 11:54:00;;;;;;;1.60;1.50;;;10.80;97.30;;;;;;5008474;28;20474;-87
2024/02/12 11:56:25;;;;;;;1.07;0.97;;;10.70;97.30;;;;;;5008699;28;20427;-86
2024/02/12 11:58:54;;;;;;;1.07;0.97;;;10.50;97.30;;;;;;5026609;28;20512;-87
2024/02/12 12:01:30;;;;;;;4.73;3.40;;;10.30;97.30;;;;;;5005168;28;20185;-88
2024/02/12 12:03:57;;;;;;;1.67;1.30;;;10.30;97.30;;;;;;5006238;28;20448;-87
2024/02/12 12:06:30;;;;;;;1.70;1.37;;;10.10;97.30;;;;;;5003889;28;20608;-86
2024/02/12 12:08:56;;;;;;;1.70;1.43;;;10.00;97.30;;;;;;5023621;28;20412;-87
2024/02/12 12:11:22;;;;;;;1.57;1.47;;;9.90;97.30;;;;;;5013108;28;20808;-86
2024/02/12 12:13:55;;;;;;;1.73;1.60;;;9.70;97.30;;;;;;5027429;28;20533;-87
2024/02/12 12:16:21;;;;;;;2.20;1.10;;;9.30;97.30;;;;;;5028013;28;20430;-87
2024/02/12 12:18:48;;;;;;;1.77;1.67;;;9.00;97.30;;;;;;5005175;28;20419;-87
2024/02/12 12:21:18;;;;;;;3.43;2.33;;;8.80;97.30;;;;;;5012342;28;20188;-87
2024/02/12 12:23:44;;;;;;;1.53;1.43;;;8.70;97.30;;;;;;5039428;28;20578;-86
2024/02/12 12:26:14;;;;;;;1.00;0.90;;;8.60;97.30;;;;;;5021230;28;20566;-87
2024/02/12 12:28:40;;;;;;;1.47;1.40;;;8.60;97.30;;;;;;5018676;28;20412;-88
2024/02/12 12:31:07;;;;;;;19.07;1.60;;;8.50;97.30;;;;;;5019921;28;20427;-87
2024/02/12 12:33:32;;;;;;;2.67;2.40;;;8.50;97.30;;;;;;5021643;28;20204;-87
2024/02/12 12:35:58;;;;;;;1.10;1.00;;;8.60;97.30;;;;;;5034068;28;20427;-88
2024/02/12 12:38:24;;;;;;;1.30;1.20;;;8.60;97.30;;;;;;5022436;28;20189;-87
2024/02/12 12:40:49;;;;;;;1.83;1.20;;;8.70;97.30;;;;;;5034879;28;20188;-89
2024/02/12 12:43:16;;;;;;;1.70;1.20;;;8.80;97.30;;;;;;5019548;28;20231;-87
2024/02/12 12:45:42;;;;;;;2.10;1.67;;;8.90;97.30;;;;;;5020969;28;20553;-87
2024/02/12 12:48:11;;;;;;;1.30;1.20;;;9.00;97.30;;;;;;5028881;28;20418;-87
2024/02/12 12:50:37;;;;;;;1.83;1.57;;;9.10;97.30;;;;;;5016387;28;20414;-87
2024/02/12 12:53:04;;;;;;;1.40;0.93;;;9.10;97.30;;;;;;5036240;28;20929;-87
2024/02/12 12:55:29;;;;;;;1.97;1.87;;;9.20;97.30;;;;;;5025878;28;20419;-88
2024/02/12 12:57:56;;;;;;;1.07;0.97;;;9.40;97.30;;;;;;5009380;28;20967;-87
2024/02/12 13:00:26;;;;;;;1.20;1.10;;;9.50;97.30;;;;;;5017586;28;20180;-87
2024/02/12 13:02:58;;;;;;;0.90;0.80;;;9.70;97.30;;;;;;5001742;28;20503;-87
2024/02/12 13:05:25;;;;;;;0.93;0.93;;;10.10;97.30;;;;;;5002333;28;21044;-87
2024/02/12 13:07:51;;;;;;;3.50;1.40;;;10.00;97.30;;;;;;5009644;28;20423;-87
2024/02/12 13:10:17;;;;;;;1.20;1.10;;;10.50;97.30;;;;;;5005374;28;20416;-87
2024/02/12 13:12:44;;;;;;;3.27;2.23;;;11.20;97.30;;;;;;5027433;28;20988;-87
2024/02/12 13:15:10;;;;;;;1.67;1.50;;;11.70;97.30;;;;;;5012055;28;20223;-87
2024/02/12 13:17:37;;;;;;;1.47;1.33;;;11.90;97.30;;;;;;5013079;28;20731;-87
2024/02/12 13:20:21;;;;;;;1.30;1.20;;;11.80;97.30;;;;;;5030603;28;20854;-87
2024/02/12 13:22:57;;;;;;;1.30;1.20;;;11.70;97.30;;;;;;5008921;28;20502;-88
2024/02/12 13:25:27;;;;;;;18.63;2.53;;;11.50;97.30;;;;;;5001170;28;20462;-87
2024/02/12 13:28:00;;;;;;;3.13;2.37;;;11.10;97.30;;;;;;5008556;28;20447;-87
2024/02/12 13:30:33;;;;;;;1.30;1.23;;;10.90;97.30;;;;;;5026951;28;20976;-87
2024/02/12 13:33:08;;;;;;;1.40;1.30;;;10.70;97.30;;;;;;5010382;28;20453;-88
2024/02/12 13:35:38;;;;;;;1.93;1.40;;;10.40;97.30;;;;;;5007287;28;20418;-87
2024/02/12 13:38:05;;;;;;;1.30;1.20;;;10.30;97.30;;;;;;5005448;28;20469;-88
2024/02/12 13:40:30;;;;;;;2.30;1.50;;;10.20;97.30;;;;;;5005528;28;20423;-87
2024/02/12 13:42:57;;;;;;;1.63;1.37;;;10.00;97.30;;;;;;5010533;28;20439;-87
2024/02/12 13:45:23;;;;;;;3.43;1.73;;;9.80;97.30;;;;;;5008149;28;20267;-87
2024/02/12 13:47:48;;;;;;;1.00;0.90;;;9.60;97.30;;;;;;5020137;28;20478;-88
2024/02/12 13:50:14;;;;;;;0.90;0.90;;;9.40;97.30;;;;;;5003302;28;20423;-88
2024/02/12 13:52:40;;;;;;;1.00;1.00;;;8.90;97.30;;;;;;5006342;28;20643;-88
2024/02/12 13:55:10;;;;;;;1.00;0.90;;;8.60;97.30;;;;;;5006690;28;20437;-89
2024/02/12 13:57:41;;;;;;;1.63;1.23;;;8.40;97.30;;;;;;5030988;28;20853;-89
2024/02/12 14:00:08;;;;;;;1.27;1.17;;;8.40;97.30;;;;;;5007486;28;20424;-88
2024/02/12 14:02:34;;;;;;;1.30;1.20;;;8.20;97.30;;;;;;5007127;28;20439;-89
2024/02/12 14:05:00;;;;;;;1.10;1.00;;;8.10;97.30;;;;;;5012117;28;20493;-88
2024/02/12 14:07:27;;;;;;;1.90;1.87;;;8.00;97.30;;;;;;5022412;28;20185;-88
2024/02/12 14:09:52;;;;;;;3.57;1.77;;;8.00;97.30;;;;;;5012972;28;20432;-89
2024/02/12 14:12:19;;;;;;;4.63;1.53;;;8.00;97.30;;;;;;5008748;28;20480;-89
2024/02/12 14:14:45;;;;;;;0.90;0.80;;;8.00;97.30;;;;;;5031687;28;20435;-89
2024/02/12 14:17:11;;;;;;;1.07;0.97;;;8.10;97.30;;;;;;5008656;28;20427;-89
2024/02/12 14:19:39;;;;;;;1.10;1.00;;;8.10;97.30;;;;;;5012369;28;20813;-89
2024/02/12 14:22:07;;;;;;;2.50;1.10;;;8.20;97.30;;;;;;5010830;28;20242;-88
2024/02/12 14:24:33;;;;;;;1.47;1.37;;;8.30;97.30;;;;;;5008369;28;20444;-88
2024/02/12 14:26:58;;;;;;;1.87;1.63;;;8.40;97.30;;;;;;5007842;28;20419;-88
2024/02/12 14:29:24;;;;;;;1.33;1.10;;;8.50;97.30;;;;;;5012996;28;20176;-88
2024/02/12 14:31:49;;;;;;;3.60;1.70;;;8.70;97.30;;;;;;5016390;28;20671;-89
2024/02/12 14:34:15;;;;;;;7.03;2.03;;;8.80;97.30;;;;;;5016491;28;20196;-88
2024/02/12 14:36:40;;;;;;;2.77;2.20;;;8.90;97.30;;;;;;5009545;28;20177;-88
2024/02/12 14:39:06;;;;;;;1.93;1.70;;;8.90;97.30;;;;;;5011031;28;20592;-88
2024/02/12 14:41:32;;;;;;;1.17;1.07;;;8.90;97.30;;;;;;5006023;28;20194;-88
2024/02/12 14:43:57;;;;;;;1.20;1.10;;;8.90;97.30;;;;;;5009297;28;21008;-88
2024/02/12 14:46:23;;;;;;;4.93;2.60;;;8.90;97.30;;;;;;5008224;28;20212;-88
2024/02/12 14:48:48;;;;;;;2.33;2.13;;;8.90;97.30;;;;;;5011995;28;20211;-88
2024/02/12 14:51:14;;;;;;;6.60;3.33;;;8.80;97.30;;;;;;5000866;28;20180;-88
2024/02/12 14:53:39;;;;;;;2.90;2.07;;;8.80;97.30;;;;;;5012690;28;20241;-89
2024/02/12 14:56:06;;;;;;;4.70;2.00;;;8.80;97.30;;;;;;5009182;28;20177;-87
2024/02/12 14:58:32;;;;;;;1.20;1.13;;;8.80;97.30;;;;;;5008652;28;20223;-86
2024/02/12 15:00:59;;;;;;;3.67;2.17;;;8.70;97.30;;;;;;5027246;28;20420;-87
2024/02/12 15:03:25;;;;;;;1.23;1.13;;;8.60;97.30;;;;;;5011972;28;20444;-87
2024/02/12 15:05:50;;;;;;;2.20;2.00;;;8.50;97.30;;;;;;5008501;28;20464;-88
2024/02/12 15:08:18;;;;;;;1.67;1.57;;;8.40;97.30;;;;;;5010022;28;20989;-87
2024/02/12 15:10:45;;;;;;;3.10;2.20;;;8.30;97.30;;;;;;5013110;28;20176;-86
2024/02/12 15:13:12;;;;;;;1.60;1.07;;;8.20;97.30;;;;;;5011939;28;20964;-87
2024/02/12 15:15:39;;;;;;;1.17;1.13;;;8.20;97.30;;;;;;5015249;28;20942;-87
2024/02/12 15:18:04;;;;;;;1.40;1.30;;;8.10;97.30;;;;;;5006123;28;20420;-88
2024/02/12 15:20:32;;;;;;;0.90;0.80;;;8.10;97.30;;;;;;5014387;28;20874;-88
2024/02/12 15:23:00;;;;;;;1.40;1.30;;;8.10;97.30;;;;;;5009793;28;20187;-87
2024/02/12 15:25:26;;;;;;;2.23;2.03;;;8.00;97.30;;;;;;5010829;28;20459;-87
2024/02/12 15:27:52;;;;;;;1.37;1.20;;;8.00;97.30;;;;;;5004176;28;20507;-88
2024/02/12 15:30:19;;;;;;;1.00;0.90;;;7.90;97.30;;;;;;5009298;28;20188;-87
2024/02/12 15:32:45;;;;;;;8.50;1.73;;;8.00;97.30;;;;;;5012958;28;20177;-87
2024/02/12 15:35:14;;;;;;;2.40;1.50;;;8.10;97.30;;;;;;4995217;28;20497;-87
2024/02/12 15:37:43;;;;;;;3.33;2.60;;;8.30;97.30;;;;;;5003366;28;20427;-87
2024/02/12 15:40:11;;;;;;;1.30;1.20;;;8.40;97.30;;;;;;5000275;28;20427;-87
2024/02/12 15:42:37;;;;;;;1.37;1.30;;;8.40;97.30;;;;;;5006787;28;20424;-87
2024/02/12 15:45:03;;;;;;;1.70;1.63;;;8.40;97.30;;;;;;5015247;28;20487;-87
2024/02/12 15:47:29;;;;;;;2.43;2.20;;;8.30;97.30;;;;;;4999034;28;20185;-87
2024/02/12 15:49:54;;;;;;;2.43;1.47;;;8.20;97.30;;;;;;5020509;28;20412;-87
2024/02/12 15:52:20;;;;;;;2.30;2.10;;;8.20;97.30;;;;;;5022613;28;20650;-87
2024/02/12 15:54:49;;;;;;;1.03;0.93;;;8.30;97.30;;;;;;4995526;28;20201;-87
2024/02/12 15:57:17;;;;;;;1.77;1.20;;;8.40;97.30;;;;;;5008496;28;20674;-87
2024/02/12 15:59:47;;;;;;;4.73;1.73;;;8.40;97.30;;;;;;5005156;28;20423;-87
2024/02/12 16:02:15;;;;;;;2.40;1.63;;;8.30;97.30;;;;;;4994359;28;20432;-86
2024/02/12 16:04:44;;;;;;;1.83;1.77;;;8.20;97.30;;;;;;4994100;28;20460;-87
2024/02/12 16:07:11;;;;;;;6.90;2.40;;;8.10;97.30;;;;;;5011437;28;20505;-87
2024/02/12 16:09:37;;;;;;;2.17;2.00;;;8.00;97.30;;;;;;5002754;28;20418;-86
2024/02/12 16:12:09;;;;;;;1.27;1.17;;;7.90;97.30;;;;;;5009842;28;20452;-87
2024/02/12 16:14:41;;;;;;;1.50;1.43;;;7.80;97.30;;;;;;5009985;28;20427;-87
2024/02/12 16:17:08;;;;;;;2.57;1.40;;;7.60;97.30;;;;;;5002166;28;20440;-87
2024/02/12 16:19:34;;;;;;;3.10;2.17;;;7.50;97.30;;;;;;4993445;28;20502;-87
2024/02/12 16:22:01;;;;;;;1.37;1.27;;;7.40;97.30;;;;;;5004442;28;20416;-87
2024/02/12 16:24:26;;;;;;;4.47;1.67;;;7.40;97.30;;;;;;4993861;28;20431;-86
2024/02/12 16:26:52;;;;;;;2.73;2.00;;;7.30;97.30;;;;;;5002054;28;20431;-87
2024/02/12 16:29:19;;;;;;;1.30;1.20;;;7.30;97.30;;;;;;4999749;28;20259;-87
2024/02/12 16:31:45;;;;;;;0.93;0.83;;;7.30;97.30;;;;;;5021792;28;20415;-87
2024/02/12 16:34:13;;;;;;;2.70;2.03;;;7.20;97.30;;;;;;5006823;28;20434;-87
2024/02/12 16:36:40;;;;;;;2.40;1.57;;;7.20;97.30;;;;;;5031135;28;20426;-86
2024/02/12 16:39:06;;;;;;;1.67;1.30;;;7.20;97.30;;;;;;5004992;28;20434;-86
2024/02/12 16:41:32;;;;;;;1.47;1.40;;;7.10;97.30;;;;;;4997565;28;20819;-86
2024/02/12 16:43:57;;;;;;;1.10;1.00;;;6.90;97.30;;;;;;5008041;28;20467;-87
2024/02/12 16:46:23;;;;;;;4.03;3.80;;;6.80;97.30;;;;;;4998646;28;20205;-86
2024/02/12 16:48:48;;;;;;;1.87;1.50;;;6.80;97.30;;;;;;5003715;28;20184;-87
2024/02/12 16:51:16;;;;;;;2.80;2.53;;;6.70;97.30;;;;;;5014710;28;20172;-87
2024/02/12 16:53:41;;;;;;;2.30;1.83;;;6.70;97.30;;;;;;5041118;28;20191;-86
2024/02/12 16:56:07;;;;;;;8.50;3.70;;;6.60;97.30;;;;;;4993603;28;20427;-87
2024/02/12 16:58:32;;;;;;;1.67;1.43;;;6.50;97.30;;;;;;5001844;28;20188;-87
2024/02/12 17:00:59;;;;;;;3.30;1.83;;;6.50;97.30;;;;;;5004351;28;20543;-87
2024/02/12 17:03:26;;;;;;;4.10;3.53;;;6.50;97.30;;;;;;5012739;28;20196;-86
2024/02/12 17:05:51;;;;;;;2.67;2.53;;;6.40;97.30;;;;;;5010617;28;20490;-87
2024/02/12 17:08:18;;;;;;;3.70;2.70;;;6.40;97.30;;;;;;5012100;28;20977;-86
2024/02/12 17:10:43;;;;;;;2.33;2.13;;;6.40;97.30;;;;;;5010438;28;20177;-86
2024/02/12 17:13:11;;;;;;;1.40;1.30;;;6.40;97.30;;;;;;5004109;28;20817;-86
2024/02/12 17:15:40;;;;;;;1.27;1.10;;;6.40;97.30;;;;;;5012871;28;20187;-86
2024/02/12 17:18:08;;;;;;;1.47;1.37;;;6.40;97.30;;;;;;5010750;28;20420;-86
2024/02/12 17:20:37;;;;;;;3.63;2.30;;;6.40;97.30;;;;;;5012730;28;20939;-87
2024/02/12 17:23:04;;;;;;;1.40;1.33;;;6.40;97.30;;;;;;5004621;28;20412;-87
2024/02/12 17:25:29;;;;;;;1.50;1.40;;;6.30;97.30;;;;;;5012642;28;21004;-86
2024/02/12 17:27:55;;;;;;;11.53;3.47;;;6.20;97.30;;;;;;5012741;28;20184;-86
2024/02/12 17:30:21;;;;;;;2.03;1.47;;;6.20;97.30;;;;;;5027318;28;20334;-86
2024/02/12 17:32:47;;;;;;;1.93;1.87;;;6.10;97.30;;;;;;5008924;28;20180;-86
2024/02/12 17:35:13;;;;;;;2.47;2.23;;;6.10;97.30;;;;;;5011667;28;20572;-87
2024/02/12 17:37:39;;;;;;;3.57;2.50;;;6.00;97.30;;;;;;5024377;28;20419;-85
2024/02/12 17:40:06;;;;;;;1.43;1.33;;;6.00;97.30;;;;;;5002452;28;20188;-87
2024/02/12 17:42:34;;;;;;;2.80;2.37;;;6.00;97.30;;;;;;5009925;28;20423;-86
2024/02/12 17:45:00;;;;;;;1.83;1.70;;;6.00;97.30;;;;;;5031946;28;20482;-87
2024/02/12 17:47:26;;;;;;;2.57;2.37;;;6.00;97.30;;;;;;5013665;28;20432;-85
2024/02/12 17:49:51;;;;;;;2.50;2.30;;;6.00;97.30;;;;;;5017144;28;20488;-86
2024/02/12 17:52:18;;;;;;;1.50;1.40;;;6.00;97.30;;;;;;5031000;28;20643;-86
2024/02/12 17:54:45;;;;;;;4.20;2.33;;;6.00;97.30;;;;;;5013532;28;20192;-85
2024/02/12 17:57:11;;;;;;;3.00;2.80;;;6.00;97.30;;;;;;5012969;28;20411;-87
2024/02/12 17:59:37;;;;;;;1.77;1.73;;;6.00;97.30;;;;;;5031640;28;20417;-85
2024/02/12 18:02:05;;;;;;;1.43;1.40;;;6.10;97.30;;;;;;5016034;28;20415;-87
2024/02/12 18:04:39;;;;;;;2.70;2.50;;;6.10;97.30;;;;;;5012018;28;20200;-86
2024/02/12 18:07:06;;;;;;;2.30;1.87;;;6.20;97.30;;;;;;5012660;28;20415;-87
2024/02/12 18:09:36;;;;;;;2.07;1.93;;;6.10;97.30;;;;;;5014622;28;20789;-86
2024/02/12 18:12:08;;;;;;;2.13;1.97;;;6.10;97.30;;;;;;5012600;28;20502;-87
2024/02/12 18:14:33;;;;;;;1.27;1.20;;;6.00;97.30;;;;;;5030213;28;20435;-86